Agat, Guam
Current Conditions -  °F | °C
As of 9:54 AM on Saturday 22 Nov 2014 (Local Time) from PGUM Reporting Station
Broken Clouds Broken Clouds  
Wind Chill: 30°   Ceiling: 8500
Heat Index: 36°   Visibility: 10mi
Dew Point: 25°   Wind: 17mph
Humidity: 74%   Direction: 80°E
Pressure: 29.92"   Gusts: 25mph
Location:  13.38°N, 144.65°E
Report Text: PGUM 212354Z 08015G22KT 10SM FEW019 SCT041 BKN085 30/25 A2992 RMK AO2 SLP125 T03000250 10300 20261 51011
Loading
Personal Weather Stations






























Interactive Weather Map New forecast layout! Learn more

10-Day Weather Forecast

Advertisements
Track Severe Weather on mobile